createdAt,value
2023-04-27T00:04:45.374Z,3.12
2023-04-27T00:09:44.925Z,3.09
2023-04-27T00:14:44.785Z,2.91
2023-04-27T00:19:44.806Z,3.02
2023-04-27T00:24:45.535Z,3.16
2023-04-27T00:29:44.689Z,3.13
2023-04-27T00:34:44.628Z,2.89
2023-04-27T00:39:44.656Z,3.03
2023-04-27T00:44:44.624Z,3.00
2023-04-27T00:49:47.969Z,3.07
2023-04-27T00:54:44.644Z,3.06
2023-04-27T00:59:44.442Z,2.87
2023-04-27T01:04:44.118Z,2.94
2023-04-27T01:09:44.259Z,2.59
2023-04-27T01:14:43.977Z,2.87
2023-04-27T01:19:43.843Z,2.92
2023-04-27T01:24:43.762Z,3.40
2023-04-27T01:29:43.834Z,3.49
2023-04-27T01:34:43.603Z,3.98
2023-04-27T01:39:43.584Z,3.94
2023-04-27T01:44:43.547Z,3.76
2023-04-27T01:49:46.567Z,3.88
2023-04-27T01:54:43.450Z,4.10
2023-04-27T02:01:46.214Z,4.55
2023-04-27T02:06:45.932Z,4.67
2023-04-27T02:11:46.009Z,4.77
2023-04-27T02:16:45.961Z,4.69
2023-04-27T02:21:45.835Z,4.64
2023-04-27T02:26:45.635Z,4.65
2023-04-27T02:31:45.747Z,4.36
2023-04-27T02:36:45.632Z,4.54
2023-04-27T02:41:45.518Z,4.59
2023-04-27T02:46:45.408Z,4.76
2023-04-27T02:51:48.339Z,4.32
2023-04-27T02:56:45.355Z,4.07
2023-04-27T03:01:45.625Z,4.65
2023-04-27T03:06:45.181Z,4.80
2023-04-27T03:11:45.051Z,4.92
2023-04-27T03:16:45.017Z,4.96
2023-04-27T03:21:45.089Z,5.12
2023-04-27T03:26:44.944Z,5.23
2023-04-27T03:31:44.989Z,5.23
2023-04-27T03:36:44.816Z,5.35
2023-04-27T03:57:53.259Z,5.31
2023-04-27T04:15:24.752Z,5.59
2023-04-27T04:20:23.966Z,5.77
2023-04-27T04:25:23.921Z,5.83
2023-04-27T04:30:23.782Z,5.75
2023-04-27T04:35:23.927Z,5.88
2023-04-27T04:40:23.656Z,6.06
2023-04-27T04:45:23.987Z,6.03
2023-04-27T04:50:23.494Z,6.30
2023-04-27T04:55:23.719Z,6.43
2023-04-27T05:00:23.443Z,6.63
2023-04-27T05:05:26.372Z,6.89
2023-04-27T05:10:23.242Z,6.95
2023-04-27T05:15:23.531Z,7.41
2023-04-27T05:20:23.214Z,8.44
2023-04-27T05:25:23.758Z,8.88
2023-04-27T05:30:23.185Z,10.34
2023-04-27T05:35:22.969Z,10.26
2023-04-27T05:40:22.852Z,10.98
2023-04-27T05:45:22.826Z,11.14
2023-04-27T05:50:22.711Z,10.25
2023-04-27T05:55:22.763Z,11.32
2023-04-27T06:00:22.784Z,12.77
2023-04-27T06:05:25.937Z,11.14
2023-04-27T06:10:22.770Z,11.10
2023-04-27T06:15:22.513Z,13.07
2023-04-27T06:20:22.378Z,15.21
2023-04-27T06:25:24.463Z,15.39
2023-04-27T06:30:22.197Z,13.33
2023-04-27T06:35:22.774Z,13.49
2023-04-27T06:40:22.104Z,13.79
2023-04-27T06:45:22.089Z,13.47
2023-04-27T06:50:21.999Z,15.89
2023-04-27T06:55:22.063Z,16.04
2023-04-27T07:00:22.045Z,16.78
2023-04-27T07:05:24.892Z,17.71
2023-04-27T07:10:21.951Z,17.70
2023-04-27T07:15:21.641Z,17.89
2023-04-27T07:20:21.644Z,18.37
2023-04-27T07:25:21.578Z,16.67
2023-04-27T07:30:29.344Z,16.77
2023-04-27T07:35:21.391Z,17.29
2023-04-27T07:40:22.418Z,17.11
2023-04-27T07:45:21.500Z,17.20
2023-04-27T07:50:21.214Z,17.00
2023-04-27T07:55:21.086Z,17.20
2023-04-27T08:00:21.179Z,17.23
2023-04-27T08:05:24.713Z,14.78
2023-04-27T08:10:20.897Z,13.70
2023-04-27T08:15:20.882Z,12.96
2023-04-27T08:20:20.775Z,14.43
2023-04-27T08:25:20.735Z,14.49
2023-04-27T08:30:20.674Z,13.61
2023-04-27T08:35:20.668Z,14.29
2023-04-27T08:40:20.636Z,14.34
2023-04-27T08:45:21.291Z,13.24
2023-04-27T08:50:20.377Z,13.83
2023-04-27T08:55:20.377Z,13.88
2023-04-27T09:00:20.255Z,13.84
2023-04-27T09:05:23.322Z,14.28
2023-04-27T09:10:20.488Z,13.96
2023-04-27T09:15:20.096Z,14.47
2023-04-27T09:20:20.092Z,13.02
2023-04-27T09:25:19.981Z,12.99
2023-04-27T09:30:19.879Z,13.69
2023-04-27T09:35:19.980Z,13.88
2023-04-27T09:40:19.808Z,13.22
2023-04-27T09:45:19.814Z,12.15
2023-04-27T09:50:19.784Z,12.95
2023-04-27T09:55:20.396Z,13.54
2023-04-27T10:02:49.978Z,14.20
2023-04-27T10:07:37.980Z,14.07
2023-04-27T10:18:18.575Z,13.94
2023-04-27T10:23:18.205Z,14.38
2023-04-27T10:42:57.581Z,13.36
2023-04-27T10:47:57.474Z,13.62
2023-04-27T10:52:58.834Z,14.14
2023-04-27T10:57:57.682Z,14.35
2023-04-27T11:02:58.006Z,13.76
2023-04-27T11:07:57.415Z,14.25
2023-04-27T11:12:57.115Z,14.14
2023-04-27T11:17:57.107Z,14.04
2023-04-27T11:22:57.034Z,14.83
2023-04-27T11:27:56.877Z,15.24
2023-04-27T11:32:59.965Z,14.10
2023-04-27T11:37:56.727Z,14.50
2023-04-27T11:42:56.830Z,14.49
2023-04-27T11:47:56.742Z,14.64
2023-04-27T11:52:56.692Z,14.10
2023-04-27T11:57:56.484Z,13.89
2023-04-27T12:02:56.593Z,14.68
2023-04-27T12:08:03.929Z,13.65
2023-04-27T12:12:56.266Z,14.81
2023-04-27T12:17:56.236Z,14.84
2023-04-27T12:22:56.167Z,16.20
2023-04-27T12:27:56.153Z,16.71
2023-04-27T12:33:06.056Z,16.71
2023-04-27T12:37:55.969Z,14.84
2023-04-27T12:42:55.904Z,15.02
2023-04-27T12:48:03.569Z,14.75
2023-04-27T12:52:56.849Z,14.72
2023-04-27T12:57:55.745Z,14.27
2023-04-27T13:02:55.757Z,13.92
2023-04-27T13:07:55.607Z,13.91
2023-04-27T13:12:55.572Z,14.50
2023-04-27T13:17:55.394Z,14.28
2023-04-27T13:22:55.411Z,15.09
2023-04-27T13:27:55.304Z,14.52
2023-04-27T13:33:07.231Z,14.72
2023-04-27T13:37:56.195Z,14.46
2023-04-27T13:42:55.130Z,15.01
2023-04-27T13:47:55.108Z,15.30
2023-04-27T13:52:55.027Z,14.17
2023-04-27T13:57:54.934Z,14.53
2023-04-27T14:02:55.014Z,14.17
2023-04-27T14:07:54.866Z,14.62
2023-04-27T14:12:54.821Z,14.67
2023-04-27T14:17:54.642Z,15.31
2023-04-27T14:22:55.396Z,16.25
2023-04-27T14:27:54.476Z,16.73
2023-04-27T14:32:57.500Z,16.88
2023-04-27T14:37:54.458Z,17.18
2023-04-27T14:42:54.450Z,18.27
2023-04-27T14:47:54.337Z,17.40
2023-04-27T14:52:54.212Z,18.59
2023-04-27T14:57:54.113Z,17.15
2023-04-27T15:02:54.198Z,16.78
2023-04-27T15:07:54.085Z,17.28
2023-04-27T15:12:53.947Z,17.06
2023-04-27T15:17:54.128Z,18.37
2023-04-27T15:22:53.854Z,17.88
2023-04-27T15:27:53.736Z,17.70
2023-04-27T15:32:56.784Z,17.48
2023-04-27T15:37:53.554Z,15.68
2023-04-27T15:42:53.784Z,14.80
2023-04-27T15:47:53.466Z,14.35
2023-04-27T15:52:53.441Z,15.31
2023-04-27T15:57:53.292Z,14.74
2023-04-27T16:02:53.422Z,14.72
2023-04-27T16:07:53.331Z,14.27
2023-04-27T16:12:53.398Z,14.72
2023-04-27T16:17:53.132Z,15.02
2023-04-27T16:22:53.070Z,14.91
2023-04-27T16:27:52.911Z,14.37
2023-04-27T16:32:55.985Z,14.94
2023-04-27T16:37:52.831Z,14.71
2023-04-27T16:42:52.739Z,14.84
2023-04-27T16:47:52.767Z,14.35
2023-04-27T16:52:52.652Z,14.69
2023-04-27T16:57:52.496Z,14.28
2023-04-27T17:02:52.745Z,14.54
2023-04-27T17:07:52.523Z,14.52
2023-04-27T17:12:52.374Z,14.12
2023-04-27T17:17:52.322Z,14.21
2023-04-27T17:22:52.216Z,14.09
2023-04-27T17:27:52.220Z,14.10
2023-04-27T17:32:55.092Z,13.95
2023-04-27T17:37:52.017Z,13.21
2023-04-27T17:42:52.066Z,13.79
2023-04-27T17:47:52.047Z,13.46
2023-04-27T17:52:51.814Z,13.37
2023-04-27T17:57:51.854Z,13.07
2023-04-27T18:02:51.812Z,12.85
2023-04-27T18:07:58.999Z,12.97
2023-04-27T18:12:51.554Z,13.02
2023-04-27T18:17:51.651Z,12.75
2023-04-27T18:22:51.394Z,12.62
2023-04-27T18:27:51.448Z,12.38
2023-04-27T18:32:54.343Z,12.02
2023-04-27T18:37:51.222Z,11.75
2023-04-27T18:42:51.294Z,11.94
2023-04-27T18:47:51.186Z,11.83
2023-04-27T18:52:51.145Z,11.75
2023-04-27T18:57:51.107Z,11.70
2023-04-27T19:02:51.168Z,11.36
2023-04-27T19:07:50.807Z,10.88
2023-04-27T19:12:50.829Z,10.51
2023-04-27T19:17:55.525Z,10.42
2023-04-27T19:22:53.255Z,10.51
2023-04-27T19:27:50.521Z,10.37
2023-04-27T19:32:53.525Z,10.53
2023-04-27T19:37:50.440Z,10.24
2023-04-27T19:42:50.389Z,10.46
2023-04-27T19:47:50.450Z,9.75
2023-04-27T19:52:50.415Z,9.78
2023-04-27T19:57:50.161Z,9.58
2023-04-27T20:02:50.992Z,9.85
2023-04-27T20:07:50.871Z,9.46
2023-04-27T20:14:01.658Z,9.25
2023-04-27T20:19:00.513Z,9.13
2023-04-27T20:24:08.320Z,8.73
2023-04-27T20:30:19.341Z,8.72
2023-04-27T20:35:18.073Z,8.47
2023-04-27T20:40:20.019Z,8.65
2023-04-27T20:45:17.723Z,9.01
2023-04-27T20:50:17.693Z,8.87
2023-04-27T20:55:17.639Z,8.93
2023-04-27T21:00:17.557Z,9.46
2023-04-27T21:05:17.493Z,9.27
2023-04-27T21:10:18.046Z,9.13
2023-04-27T21:15:17.334Z,8.91
2023-04-27T21:20:20.314Z,9.21
2023-04-27T21:25:17.204Z,8.55
2023-04-27T21:30:17.166Z,8.68
2023-04-27T21:35:17.117Z,8.42
2023-04-27T21:40:17.089Z,8.30
2023-04-27T21:45:16.949Z,8.37
2023-04-27T21:50:16.942Z,8.50
2023-04-27T21:55:16.784Z,8.88
2023-04-27T22:00:16.782Z,8.62
2023-04-27T22:05:16.668Z,8.91
2023-04-27T22:10:16.639Z,8.84
2023-04-27T22:15:16.538Z,8.50
2023-04-27T22:20:20.052Z,8.75
2023-04-27T22:25:16.416Z,8.28
2023-04-27T22:30:16.456Z,8.53
2023-04-27T22:35:25.484Z,8.55
2023-04-27T22:40:17.299Z,8.93
2023-04-27T22:45:23.634Z,8.94
2023-04-27T22:50:23.590Z,9.18
2023-04-27T22:55:16.098Z,8.90
2023-04-27T23:00:15.948Z,9.16
2023-04-27T23:05:15.926Z,8.50
2023-04-27T23:10:15.882Z,8.72
2023-04-27T23:15:15.769Z,8.65
2023-04-27T23:20:28.201Z,8.44
2023-04-27T23:25:16.630Z,7.93
2023-04-27T23:30:15.666Z,8.21
2023-04-27T23:35:15.490Z,8.33
2023-04-27T23:40:15.431Z,8.83
2023-04-27T23:45:15.372Z,8.87
2023-04-27T23:50:15.430Z,8.81
2023-04-27T23:55:15.242Z,8.91
